Time;durP1;ratioP1;P1;durP2;ratioP2;P2;SDS_P1;SDS_P2;PMS_P1;PMS_P2;Temp;Humidity;BMP_temperature;BMP_pressure;BME280_temperature;BME280_humidity;BME280_pressure;Samples;Min_cycle;Max_cycle;Signal;HPM_P1;HPM_P2
2023/03/24 00:03:53;;;;;;;5.78;1.52;;;11.50;99.90;;;;;;7283056;32;20109;-55
2023/03/24 00:07:55;;;;;;;3.75;1.35;;;11.60;99.90;;;;;;7285145;32;20155;-55
2023/03/24 00:12:03;;;;;;;2.75;1.60;;;11.50;99.90;;;;;;7277035;32;20096;-55
2023/03/24 00:16:05;;;;;;;3.03;1.35;;;11.50;99.90;;;;;;7283171;32;20158;-55
2023/03/24 00:20:15;;;;;;;3.05;1.40;;;11.40;99.90;;;;;;7273981;32;20105;-54
2023/03/24 00:24:17;;;;;;;4.95;1.58;;;11.40;99.90;;;;;;7274660;32;20197;-55
2023/03/24 00:28:19;;;;;;;4.75;1.50;;;11.40;99.90;;;;;;7266900;32;20175;-55
2023/03/24 00:32:21;;;;;;;4.57;1.60;;;11.40;99.90;;;;;;7281554;32;20716;-55
2023/03/24 00:36:25;;;;;;;5.25;1.67;;;11.50;99.90;;;;;;7278321;32;20111;-55
2023/03/24 00:40:27;;;;;;;5.22;1.70;;;11.40;99.90;;;;;;7284642;32;20095;-54
2023/03/24 00:44:28;;;;;;;4.32;1.23;;;11.40;99.90;;;;;;7275298;32;20459;-55
2023/03/24 00:48:31;;;;;;;4.20;1.37;;;11.50;99.90;;;;;;7279640;32;20594;-55
2023/03/24 00:52:33;;;;;;;6.95;1.65;;;11.50;99.90;;;;;;7284980;32;20108;-55
2023/03/24 00:56:39;;;;;;;3.78;1.62;;;11.50;99.90;;;;;;7286852;32;20158;-55
2023/03/24 01:00:41;;;;;;;5.07;1.35;;;11.50;99.90;;;;;;7277243;32;20570;-55
2023/03/24 01:04:46;;;;;;;3.42;1.50;;;11.50;99.90;;;;;;7288446;32;20136;-55
2023/03/24 01:08:52;;;;;;;3.87;1.58;;;11.50;99.90;;;;;;7290512;32;20130;-54
2023/03/24 01:12:55;;;;;;;3.80;1.87;;;11.50;99.90;;;;;;7280311;32;20115;-55
2023/03/24 01:16:58;;;;;;;3.80;1.65;;;11.50;99.90;;;;;;7284057;32;20517;-55
2023/03/24 01:21:00;;;;;;;5.20;1.77;;;11.50;99.90;;;;;;7282551;32;20540;-55
2023/03/24 01:25:13;;;;;;;4.57;1.80;;;11.50;99.90;;;;;;7277104;32;20594;-55
2023/03/24 01:29:14;;;;;;;4.28;1.90;;;11.50;99.90;;;;;;7278819;32;20105;-55
2023/03/24 01:33:16;;;;;;;2.90;1.58;;;11.40;99.90;;;;;;7284345;32;20537;-55
2023/03/24 01:37:18;;;;;;;4.05;1.48;;;11.40;99.90;;;;;;7285855;32;20290;-55
2023/03/24 01:41:20;;;;;;;5.07;1.95;;;11.40;99.90;;;;;;7288529;32;20424;-55
2023/03/24 01:45:37;;;;;;;3.72;2.17;;;11.40;99.90;;;;;;7280945;32;20119;-55
2023/03/24 01:49:52;;;;;;;4.32;1.80;;;11.40;99.90;;;;;;7277537;32;20119;-55
2023/03/24 01:54:09;;;;;;;4.07;2.30;;;11.40;99.90;;;;;;7284199;32;20092;-55
2023/03/24 01:58:11;;;;;;;3.60;2.28;;;11.40;99.90;;;;;;7285501;32;20220;-55
2023/03/24 02:02:14;;;;;;;3.53;2.05;;;11.50;99.90;;;;;;7291130;32;20112;-55
2023/03/24 02:06:17;;;;;;;5.95;2.30;;;11.50;99.90;;;;;;7287387;32;20108;-55
2023/03/24 02:10:21;;;;;;;4.78;2.58;;;11.50;99.90;;;;;;7282282;32;20352;-55
2023/03/24 02:14:23;;;;;;;4.05;2.33;;;11.40;99.90;;;;;;7284910;32;20212;-55
2023/03/24 02:18:28;;;;;;;5.18;2.20;;;11.50;99.90;;;;;;7293842;32;20099;-55
2023/03/24 02:22:51;;;;;;;3.85;2.42;;;11.50;99.90;;;;;;7285247;32;20207;-55
2023/03/24 02:27:22;;;;;;;4.35;2.60;;;11.50;99.90;;;;;;7286748;32;20118;-55
2023/03/24 02:31:42;;;;;;;3.42;2.30;;;11.40;99.90;;;;;;7288758;32;20207;-55
2023/03/24 02:36:12;;;;;;;3.12;2.35;;;11.40;99.90;;;;;;7290192;32;20469;-55
2023/03/24 02:40:32;;;;;;;4.55;2.92;;;11.50;99.90;;;;;;7274856;32;20128;-55
2023/03/24 02:45:11;;;;;;;3.65;2.42;;;11.40;99.90;;;;;;7285238;32;20108;-55
2023/03/24 02:49:12;;;;;;;4.55;2.58;;;11.40;99.90;;;;;;7287661;32;20100;-55
2023/03/24 02:53:25;;;;;;;6.70;2.92;;;11.50;99.90;;;;;;7285564;32;20129;-56
2023/03/24 02:57:53;;;;;;;3.40;2.70;;;11.60;99.90;;;;;;7289308;32;20105;-55
2023/03/24 03:02:04;;;;;;;4.20;2.30;;;11.60;99.90;;;;;;7286598;32;20107;-55
2023/03/24 03:06:21;;;;;;;5.00;2.37;;;11.70;99.90;;;;;;7284903;32;20100;-55
2023/03/24 03:10:28;;;;;;;2.75;2.35;;;11.80;99.90;;;;;;7286528;32;20563;-55
2023/03/24 03:14:34;;;;;;;;;;;11.90;99.90;;;;;;7281886;32;20210;-55
2023/03/24 03:18:42;;;;;;;3.12;2.50;;;11.90;99.90;;;;;;7278455;32;20122;-55
2023/03/24 03:22:59;;;;;;;5.22;2.47;;;12.00;99.90;;;;;;7288665;32;20162;-56
2023/03/24 03:27:07;;;;;;;3.00;2.40;;;12.10;99.90;;;;;;7281911;32;20333;-55
2023/03/24 03:31:15;;;;;;;4.43;2.35;;;12.20;99.90;;;;;;7286340;32;20104;-55
2023/03/24 03:35:35;;;;;;;3.28;1.70;;;12.20;99.90;;;;;;7281733;32;20289;-56
2023/03/24 03:39:42;;;;;;;3.92;2.10;;;12.30;99.90;;;;;;7276174;32;20179;-55
2023/03/24 03:43:45;;;;;;;;;;;12.30;99.90;;;;;;7283793;32;20243;-57
2023/03/24 03:47:47;;;;;;;4.62;1.77;;;12.50;99.90;;;;;;7278834;32;20069;-55
2023/03/24 03:51:50;;;;;;;2.08;1.30;;;12.70;99.90;;;;;;7290397;32;20135;-56
2023/03/24 03:55:52;;;;;;;3.65;1.67;;;12.80;99.90;;;;;;7283711;32;20686;-56
2023/03/24 03:59:55;;;;;;;2.30;1.60;;;12.80;99.90;;;;;;7283659;32;20809;-56
2023/03/24 04:04:03;;;;;;;2.17;1.55;;;12.80;99.90;;;;;;7292924;32;20196;-56
2023/03/24 04:08:13;;;;;;;2.35;1.60;;;12.90;99.90;;;;;;7280952;32;20821;-56
2023/03/24 04:12:47;;;;;;;6.85;1.50;;;13.00;99.90;;;;;;7282553;32;20132;-56
2023/03/24 04:17:10;;;;;;;2.37;1.45;;;12.90;99.90;;;;;;7281511;32;20107;-56
2023/03/24 04:21:33;;;;;;;2.67;1.70;;;13.00;99.90;;;;;;7285366;32;20493;-56
2023/03/24 04:25:43;;;;;;;3.08;1.77;;;13.00;99.90;;;;;;7284104;32;20126;-56
2023/03/24 04:30:13;;;;;;;3.47;1.70;;;13.00;99.90;;;;;;7283956;32;20680;-56
2023/03/24 04:34:36;;;;;;;2.55;1.60;;;12.90;99.90;;;;;;7291545;32;20127;-55
2023/03/24 04:38:38;;;;;;;3.92;1.58;;;12.80;99.90;;;;;;7283507;32;20123;-56
2023/03/24 04:42:47;;;;;;;2.90;1.70;;;12.60;99.90;;;;;;7284662;32;20219;-56
2023/03/24 04:46:50;;;;;;;2.90;1.12;;;12.50;99.90;;;;;;7284287;32;20179;-56
2023/03/24 04:50:56;;;;;;;2.78;1.73;;;12.40;99.90;;;;;;7282237;32;20210;-56
2023/03/24 04:54:58;;;;;;;2.65;1.60;;;12.40;99.90;;;;;;7282815;32;20562;-56
2023/03/24 04:59:01;;;;;;;4.00;1.75;;;12.40;99.90;;;;;;7279367;32;20824;-56
2023/03/24 05:03:03;;;;;;;3.17;1.70;;;12.40;99.90;;;;;;7285223;32;20289;-56
2023/03/24 05:07:05;;;;;;;4.32;1.90;;;12.30;99.90;;;;;;7278113;32;20125;-56
2023/03/24 05:11:07;;;;;;;2.92;1.60;;;12.30;99.90;;;;;;7275223;32;20097;-56
2023/03/24 05:15:09;;;;;;;3.08;1.50;;;12.30;99.90;;;;;;7281478;32;20195;-56
2023/03/24 05:19:11;;;;;;;2.28;1.50;;;12.30;99.90;;;;;;7282427;32;20224;-56
2023/03/24 05:23:13;;;;;;;2.55;1.15;;;12.20;99.90;;;;;;7280409;32;20207;-55
2023/03/24 05:27:15;;;;;;;2.65;1.15;;;12.10;99.90;;;;;;7274728;32;20116;-56
2023/03/24 05:31:17;;;;;;;4.07;0.93;;;11.90;99.90;;;;;;7283870;32;20126;-56
2023/03/24 05:35:19;;;;;;;2.78;0.90;;;11.90;99.90;;;;;;7276923;32;20100;-56
2023/03/24 05:39:20;;;;;;;2.22;0.82;;;11.40;99.90;;;;;;7276763;32;20251;-55
2023/03/24 05:43:22;;;;;;;2.45;0.90;;;11.30;99.90;;;;;;7278261;32;20165;-56
2023/03/24 05:47:24;;;;;;;6.37;0.70;;;11.20;99.90;;;;;;7282156;32;20128;-58
2023/03/24 05:51:26;;;;;;;2.83;0.88;;;11.10;99.90;;;;;;7282037;32;20115;-55
2023/03/24 05:55:29;;;;;;;4.47;0.70;;;10.90;99.90;;;;;;7278759;32;20104;-56
2023/03/24 05:59:30;;;;;;;3.62;0.98;;;10.90;99.90;;;;;;7277890;32;20672;-56
2023/03/24 06:03:33;;;;;;;2.37;0.90;;;10.90;99.90;;;;;;7284907;32;20097;-56
2023/03/24 06:07:41;;;;;;;2.67;0.90;;;10.90;99.90;;;;;;7276169;32;20297;-55
2023/03/24 06:11:43;;;;;;;6.62;1.02;;;10.80;99.90;;;;;;7279630;32;20104;-56
2023/03/24 06:15:45;;;;;;;7.20;1.00;;;10.60;99.90;;;;;;7286627;32;20758;-57
2023/03/24 06:19:48;;;;;;;6.80;1.20;;;10.40;99.90;;;;;;7282727;32;20230;-56
2023/03/24 06:23:50;;;;;;;8.32;1.58;;;10.30;99.90;;;;;;7283824;32;20124;-55
2023/03/24 06:27:52;;;;;;;5.07;1.02;;;10.10;99.90;;;;;;7278839;32;20715;-56
2023/03/24 06:31:54;;;;;;;5.85;0.90;;;10.10;99.90;;;;;;7280454;32;20219;-56
2023/03/24 06:35:56;;;;;;;10.13;1.20;;;10.10;99.90;;;;;;7280547;32;20299;-56
2023/03/24 06:39:57;;;;;;;6.22;1.17;;;10.00;99.90;;;;;;7280580;32;20149;-56
2023/03/24 06:44:00;;;;;;;7.62;1.40;;;10.10;99.90;;;;;;7283745;32;20171;-56
2023/03/24 06:48:02;;;;;;;9.35;1.20;;;10.20;99.90;;;;;;7281741;32;20725;-57
2023/03/24 06:52:04;;;;;;;7.30;1.62;;;10.30;99.90;;;;;;7281233;32;20104;-56
2023/03/24 06:56:06;;;;;;;10.05;1.25;;;10.30;99.90;;;;;;7284795;32;20146;-56
2023/03/24 07:00:09;;;;;;;6.50;1.25;;;10.30;99.90;;;;;;7280194;32;20773;-56
2023/03/24 07:04:10;;;;;;;9.32;1.27;;;10.20;99.90;;;;;;7268886;32;20280;-58
2023/03/24 07:08:12;;;;;;;5.72;1.17;;;10.30;99.90;;;;;;7288938;32;20254;-56
2023/03/24 07:12:17;;;;;;;8.43;1.17;;;10.10;99.90;;;;;;7276818;32;20199;-56
2023/03/24 07:16:18;;;;;;;10.95;1.48;;;10.10;99.90;;;;;;7287081;32;20224;-57
2023/03/24 07:20:20;;;;;;;9.90;1.20;;;10.10;99.90;;;;;;7290350;32;20857;-56
2023/03/24 07:24:22;;;;;;;7.28;1.85;;;10.10;99.90;;;;;;7286193;32;20616;-57
2023/03/24 07:28:24;;;;;;;7.70;1.33;;;10.10;99.90;;;;;;7285842;32;20128;-57
2023/03/24 07:32:29;;;;;;;10.13;1.52;;;10.20;99.90;;;;;;7278295;32;20192;-57
2023/03/24 07:36:31;;;;;;;8.05;1.20;;;10.40;99.90;;;;;;7286415;32;20251;-57
2023/03/24 07:40:34;;;;;;;8.52;1.30;;;10.50;99.90;;;;;;7282369;32;20495;-57
2023/03/24 07:44:36;;;;;;;9.60;1.62;;;10.60;99.90;;;;;;7280902;32;20150;-56
2023/03/24 07:48:37;;;;;;;7.37;1.33;;;10.70;99.90;;;;;;7288055;32;20099;-57
2023/03/24 07:52:41;;;;;;;5.75;1.60;;;10.70;99.90;;;;;;7287371;32;20128;-56
2023/03/24 07:56:43;;;;;;;7.93;1.00;;;10.70;99.90;;;;;;7285112;32;21196;-57
2023/03/24 08:00:44;;;;;;;10.65;1.50;;;10.90;99.90;;;;;;7288662;32;20135;-55
2023/03/24 08:04:52;;;;;;;8.15;1.52;;;10.90;99.90;;;;;;7282734;32;20128;-57
2023/03/24 08:08:54;;;;;;;12.45;1.70;;;11.00;99.90;;;;;;7281646;32;20100;-57
2023/03/24 08:12:57;;;;;;;12.52;1.65;;;11.10;99.90;;;;;;7284240;32;20266;-57
2023/03/24 08:16:59;;;;;;;8.98;1.55;;;11.40;99.90;;;;;;7283607;32;20112;-57
2023/03/24 08:21:01;;;;;;;8.77;1.58;;;11.90;99.90;;;;;;7282081;32;20781;-57
2023/03/24 08:25:03;;;;;;;10.60;1.90;;;12.30;99.90;;;;;;7286604;32;20122;-58
2023/03/24 08:29:05;;;;;;;10.63;2.58;;;12.40;99.90;;;;;;7288245;32;20183;-57
2023/03/24 08:33:06;;;;;;;14.13;2.30;;;12.80;99.90;;;;;;7286580;32;20269;-57
2023/03/24 08:37:08;;;;;;;9.05;2.25;;;13.10;99.90;;;;;;7284285;32;20259;-57
2023/03/24 08:41:10;;;;;;;8.07;2.45;;;13.30;99.90;;;;;;7282181;32;20305;-57
2023/03/24 08:45:12;;;;;;;14.00;2.70;;;12.90;99.90;;;;;;7281427;32;20108;-57
2023/03/24 08:49:14;;;;;;;10.95;2.62;;;13.00;99.90;;;;;;7282859;32;20180;-57
2023/03/24 08:53:16;;;;;;;12.85;2.42;;;13.00;99.90;;;;;;7288852;32;21513;-57
2023/03/24 08:57:18;;;;;;;10.35;2.22;;;13.20;99.90;;;;;;7281167;32;20170;-58
2023/03/24 09:01:21;;;;;;;8.63;1.87;;;13.50;99.90;;;;;;7284816;32;20526;-57
2023/03/24 09:05:25;;;;;;;10.93;1.80;;;13.50;99.90;;;;;;7283329;32;20128;-57
2023/03/24 09:09:44;;;;;;;14.02;2.17;;;13.60;99.90;;;;;;7281064;32;20183;-57
2023/03/24 09:13:46;;;;;;;14.27;2.10;;;13.80;99.90;;;;;;7289007;32;20183;-57
2023/03/24 09:17:48;;;;;;;12.75;1.90;;;14.00;99.90;;;;;;7286599;32;20157;-57
2023/03/24 09:21:50;;;;;;;10.73;1.83;;;14.10;99.90;;;;;;7282113;32;20092;-57
2023/03/24 09:25:52;;;;;;;11.05;1.55;;;13.60;99.90;;;;;;7278661;32;20155;-57
2023/03/24 09:29:54;;;;;;;10.00;1.75;;;13.40;99.90;;;;;;7288731;32;20108;-60
2023/03/24 09:33:56;;;;;;;9.43;1.85;;;13.90;99.90;;;;;;7273706;32;20123;-57
2023/03/24 09:37:58;;;;;;;11.95;2.08;;;14.10;99.90;;;;;;7292735;32;20442;-57
2023/03/24 09:41:59;;;;;;;9.77;1.98;;;14.60;99.90;;;;;;7287363;32;20104;-57
2023/03/24 09:46:04;;;;;;;8.57;2.05;;;14.50;99.90;;;;;;7285362;32;20240;-57
2023/03/24 09:50:16;;;;;;;10.48;2.30;;;14.90;99.90;;;;;;7269324;32;20124;-57
2023/03/24 09:54:30;;;;;;;12.13;1.90;;;15.20;99.90;;;;;;7280777;32;20681;-57
2023/03/24 09:58:32;;;;;;;12.13;1.98;;;15.90;99.90;;;;;;7284698;32;20622;-56
2023/03/24 10:02:34;;;;;;;9.50;2.17;;;15.70;99.90;;;;;;7290547;32;20450;-57
2023/03/24 10:06:40;;;;;;;9.93;1.58;;;15.30;99.90;;;;;;7280439;32;20108;-56
2023/03/24 10:10:54;;;;;;;20.58;2.65;;;14.90;99.90;;;;;;7281472;32;20126;-57
2023/03/24 10:15:05;;;;;;;9.23;1.70;;;14.00;99.90;;;;;;7279488;32;20244;-57
2023/03/24 10:19:39;;;;;;;10.85;2.05;;;13.80;99.90;;;;;;7290658;32;20183;-57
2023/03/24 10:23:47;;;;;;;10.27;1.65;;;14.30;99.90;;;;;;7279304;32;20240;-57
2023/03/24 10:27:56;;;;;;;7.10;1.73;;;15.40;99.90;;;;;;7282845;32;20190;-57
2023/03/24 10:31:59;;;;;;;9.00;2.05;;;14.60;99.90;;;;;;7288562;32;20280;-57
2023/03/24 10:36:08;;;;;;;9.45;1.65;;;13.70;99.90;;;;;;7285967;32;20100;-57
2023/03/24 10:40:17;;;;;;;7.90;1.73;;;13.60;99.90;;;;;;7280113;32;20167;-56
2023/03/24 10:44:20;;;;;;;8.05;2.10;;;13.50;99.90;;;;;;7274789;32;20574;-57
2023/03/24 10:48:44;;;;;;;10.32;2.33;;;13.40;99.90;;;;;;7275613;32;20198;-56
2023/03/24 10:52:47;;;;;;;6.57;1.70;;;13.30;99.90;;;;;;7290763;32;20127;-55
2023/03/24 10:56:56;;;;;;;12.63;2.55;;;13.60;99.90;;;;;;7273604;32;20108;-55
2023/03/24 11:00:59;;;;;;;11.77;1.80;;;13.80;99.90;;;;;;7277657;32;20919;-55
2023/03/24 11:05:17;;;;;;;9.65;1.73;;;14.40;99.90;;;;;;7273064;32;20802;-55
2023/03/24 11:09:21;;;;;;;9.40;2.05;;;14.70;99.90;;;;;;7281507;32;20522;-55
2023/03/24 11:13:24;;;;;;;8.00;1.52;;;14.70;99.90;;;;;;7277252;32;20200;-55
2023/03/24 11:17:26;;;;;;;6.80;1.50;;;14.70;99.90;;;;;;7273814;32;20289;-55
2023/03/24 11:21:30;;;;;;;9.63;1.55;;;14.30;99.90;;;;;;7279415;32;20127;-54
2023/03/24 11:25:36;;;;;;;5.68;1.33;;;14.50;99.90;;;;;;7275860;32;20327;-56
2023/03/24 11:29:38;;;;;;;9.68;2.20;;;15.00;99.90;;;;;;7287403;32;20100;-55
2023/03/24 11:33:50;;;;;;;3.95;1.48;;;16.90;99.90;;;;;;7284511;32;20147;-55
2023/03/24 11:37:52;;;;;;;6.93;1.60;;;17.30;99.90;;;;;;7277511;32;20157;-55
2023/03/24 11:42:16;;;;;;;7.80;1.20;;;17.90;99.90;;;;;;7277674;32;20116;-55
2023/03/24 11:46:20;;;;;;;8.88;1.77;;;17.10;99.90;;;;;;7280464;32;20575;-54
2023/03/24 11:50:37;;;;;;;8.70;1.48;;;16.80;99.90;;;;;;7277090;32;20483;-56
2023/03/24 11:54:39;;;;;;;;;;;16.50;99.90;;;;;;7269063;32;20222;-55
2023/03/24 11:58:57;;;;;;;8.45;1.60;;;15.90;99.90;;;;;;7276507;32;20007;-55
2023/03/24 12:03:26;;;;;;;4.95;1.17;;;15.20;99.90;;;;;;7274440;32;20310;-55
2023/03/24 12:07:38;;;;;;;8.82;1.90;;;15.00;99.90;;;;;;7275182;32;20486;-55
2023/03/24 12:11:59;;;;;;;8.55;1.52;;;14.60;99.90;;;;;;7278631;32;20128;-55
2023/03/24 12:16:30;;;;;;;7.35;1.20;;;14.80;99.90;;;;;;7275319;32;20182;-55
2023/03/24 12:20:57;;;;;;;7.07;1.60;;;15.10;99.90;;;;;;7287423;32;20244;-55
2023/03/24 12:25:30;;;;;;;6.95;1.27;;;15.60;99.90;;;;;;7278790;32;20199;-53
2023/03/24 12:29:51;;;;;;;8.23;1.52;;;15.60;99.90;;;;;;7280617;32;20180;-55
2023/03/24 12:34:15;;;;;;;7.50;1.45;;;15.40;99.90;;;;;;7275288;32;20126;-55
2023/03/24 12:38:55;;;;;;;5.37;1.50;;;15.70;99.90;;;;;;7261396;32;20257;-56
2023/03/24 12:43:25;;;;;;;7.03;1.27;;;16.50;99.90;;;;;;7258571;32;20123;-56
2023/03/24 12:47:55;;;;;;;4.78;1.20;;;18.70;99.90;;;;;;7274335;32;20180;-56
2023/03/24 12:52:17;;;;;;;5.05;1.23;;;20.70;99.90;;;;;;7274504;32;20260;-56
2023/03/24 12:56:25;;;;;;;5.82;1.40;;;19.50;98.00;;;;;;7275077;32;20100;-55
2023/03/24 13:00:35;;;;;;;6.45;1.12;;;17.10;99.90;;;;;;7278927;32;20568;-56
2023/03/24 13:04:41;;;;;;;7.28;1.20;;;16.00;99.90;;;;;;7288393;32;20124;-55
2023/03/24 13:08:51;;;;;;;9.02;1.55;;;15.40;99.90;;;;;;7283001;32;20268;-56
2023/03/24 13:12:56;;;;;;;6.50;1.40;;;15.00;99.90;;;;;;7286538;32;20251;-57
2023/03/24 13:17:04;;;;;;;6.07;1.33;;;14.70;99.90;;;;;;7284724;32;20308;-56
2023/03/24 13:21:16;;;;;;;9.45;1.33;;;14.70;99.90;;;;;;7285342;32;20195;-56
2023/03/24 13:25:45;;;;;;;6.87;1.37;;;14.70;99.90;;;;;;7278135;32;20178;-56
2023/03/24 13:30:12;;;;;;;6.05;1.17;;;14.70;99.90;;;;;;7280152;32;20100;-55
2023/03/24 13:34:30;;;;;;;7.57;1.20;;;14.70;99.90;;;;;;7279983;32;20337;-55
2023/03/24 13:38:37;;;;;;;5.30;1.23;;;14.70;99.90;;;;;;7276942;32;20184;-56
2023/03/24 13:42:47;;;;;;;5.72;1.10;;;14.80;99.90;;;;;;7278366;32;20120;-56
2023/03/24 13:47:18;;;;;;;7.65;1.37;;;15.90;99.90;;;;;;7277516;32;20211;-56
2023/03/24 13:51:36;;;;;;;8.18;1.17;;;16.50;99.90;;;;;;7259884;32;20621;-56
2023/03/24 13:55:43;;;;;;;4.57;1.00;;;17.30;99.90;;;;;;7277540;32;20344;-56
2023/03/24 14:00:10;;;;;;;3.40;0.90;;;19.10;99.90;;;;;;7286635;32;20208;-56
2023/03/24 14:04:24;;;;;;;4.43;0.90;;;19.80;94.60;;;;;;7286109;32;20206;-56
2023/03/24 14:08:50;;;;;;;6.15;1.00;;;17.80;96.40;;;;;;7281843;32;20100;-56
2023/03/24 14:12:52;;;;;;;3.62;0.82;;;16.40;99.90;;;;;;7278737;32;20195;-55
2023/03/24 14:17:13;;;;;;;4.53;0.80;;;15.40;99.90;;;;;;7281518;32;20171;-56
2023/03/24 14:21:26;;;;;;;2.45;0.50;;;16.20;99.90;;;;;;7279582;32;20120;-56
2023/03/24 14:25:31;;;;;;;3.78;1.00;;;18.00;99.90;;;;;;7282642;32;20126;-57
2023/03/24 14:29:51;;;;;;;6.43;1.05;;;18.60;99.90;;;;;;7286626;32;20183;-58
2023/03/24 14:33:52;;;;;;;4.28;0.75;;;18.50;99.90;;;;;;7283057;32;20792;-56
2023/03/24 14:38:03;;;;;;;9.02;1.23;;;16.70;99.90;;;;;;7277484;32;20179;-56
2023/03/24 14:42:32;;;;;;;6.00;1.10;;;15.70;99.90;;;;;;7277810;32;20549;-56
2023/03/24 14:46:38;;;;;;;4.70;1.12;;;15.10;99.90;;;;;;7274436;32;20621;-56
2023/03/24 14:50:40;;;;;;;5.87;1.08;;;14.40;99.90;;;;;;7266825;32;20159;-63
2023/03/24 14:54:52;;;;;;;4.78;0.88;;;13.60;99.90;;;;;;7280687;32;20218;-56
2023/03/24 14:58:56;;;;;;;4.30;0.70;;;12.70;99.90;;;;;;7273293;32;20112;-56
2023/03/24 15:03:09;;;;;;;4.65;1.50;;;12.70;99.90;;;;;;7274079;32;20126;-56
2023/03/24 15:07:13;;;;;;;6.60;1.10;;;12.30;99.90;;;;;;7275170;32;20785;-56
2023/03/24 15:11:19;;;;;;;4.45;0.90;;;12.30;99.90;;;;;;7270177;32;20226;-56
2023/03/24 15:15:22;;;;;;;4.43;0.80;;;12.60;99.90;;;;;;7269607;32;20183;-56
2023/03/24 15:19:27;;;;;;;2.95;0.68;;;13.00;99.90;;;;;;7269136;32;20136;-56
2023/03/24 15:23:30;;;;;;;4.65;0.88;;;13.20;99.90;;;;;;7267337;32;20104;-56
2023/03/24 15:27:33;;;;;;;3.67;0.82;;;13.30;99.90;;;;;;7272707;32;20138;-56
2023/03/24 15:31:35;;;;;;;3.30;0.70;;;13.20;99.90;;;;;;7276935;32;20123;-56
2023/03/24 15:35:41;;;;;;;2.92;0.82;;;13.10;99.90;;;;;;7277024;32;20191;-56
2023/03/24 15:39:56;;;;;;;2.70;0.85;;;12.90;99.90;;;;;;7274883;32;20902;-56
2023/03/24 15:44:19;;;;;;;7.70;0.82;;;12.90;99.90;;;;;;7274792;32;20123;-56
2023/03/24 15:48:24;;;;;;;7.95;1.10;;;12.80;99.90;;;;;;7272031;32;20126;-56
2023/03/24 15:52:30;;;;;;;6.65;1.25;;;12.70;99.90;;;;;;7275272;32;20205;-56
2023/03/24 15:56:33;;;;;;;4.55;0.62;;;12.60;99.90;;;;;;7273907;32;20219;-56
2023/03/24 16:00:39;;;;;;;2.53;0.43;;;11.10;99.90;;;;;;7267071;32;20115;-55
2023/03/24 16:04:41;;;;;;;1.10;0.35;;;9.90;99.90;;;;;;7275209;32;20318;-55
2023/03/24 16:08:45;;;;;;;1.12;0.40;;;9.40;99.90;;;;;;7277893;32;20262;-55
2023/03/24 16:12:46;;;;;;;0.88;0.40;;;9.40;99.90;;;;;;7286632;32;20174;-55
2023/03/24 16:16:53;;;;;;;2.15;0.50;;;9.30;99.90;;;;;;7283938;32;20852;-56
2023/03/24 16:20:55;;;;;;;3.03;1.23;;;9.30;99.90;;;;;;7275367;32;20128;-55
2023/03/24 16:24:57;;;;;;;1.62;0.60;;;9.40;99.90;;;;;;7269950;32;20108;-58
2023/03/24 16:29:16;;;;;;;2.50;0.60;;;9.40;99.90;;;;;;7279020;32;20180;-55
2023/03/24 16:33:19;;;;;;;1.55;0.50;;;9.30;99.90;;;;;;7276886;32;20217;-56
2023/03/24 16:37:21;;;;;;;2.22;0.57;;;9.30;99.90;;;;;;7277070;32;20127;-55
2023/03/24 16:41:23;;;;;;;2.75;0.50;;;9.40;99.90;;;;;;7278335;32;20096;-57
2023/03/24 16:45:24;;;;;;;1.50;0.57;;;9.60;99.90;;;;;;7279715;32;20679;-56
2023/03/24 16:49:26;;;;;;;2.40;0.40;;;9.60;99.90;;;;;;7285942;32;20128;-55
2023/03/24 16:53:28;;;;;;;1.98;0.50;;;9.90;99.90;;;;;;7278267;32;20667;-56
2023/03/24 16:57:30;;;;;;;1.30;0.55;;;10.10;99.90;;;;;;7275058;32;20156;-56
2023/03/24 17:01:36;;;;;;;2.12;0.60;;;10.30;99.90;;;;;;7275409;32;20250;-57
2023/03/24 17:05:50;;;;;;;0.68;0.30;;;10.30;99.90;;;;;;7282557;32;20126;-56
2023/03/24 17:09:51;;;;;;;1.48;0.65;;;10.30;99.90;;;;;;7284577;32;20537;-56
2023/03/24 17:13:55;;;;;;;2.37;0.40;;;10.30;99.90;;;;;;7281993;32;20191;-56
2023/03/24 17:17:58;;;;;;;1.87;0.40;;;10.30;99.90;;;;;;7274919;32;20700;-57
2023/03/24 17:22:03;;;;;;;2.08;0.50;;;10.20;99.90;;;;;;7277617;32;20420;-56
2023/03/24 17:26:05;;;;;;;1.65;0.40;;;10.10;99.90;;;;;;7276415;32;20314;-56
2023/03/24 17:30:10;;;;;;;5.10;0.98;;;10.10;99.90;;;;;;7287747;32;20178;-56
2023/03/24 17:34:13;;;;;;;2.40;0.80;;;10.00;99.90;;;;;;7280396;32;20142;-56
2023/03/24 17:38:17;;;;;;;4.93;0.85;;;10.00;99.90;;;;;;7289817;32;20530;-55
2023/03/24 17:42:19;;;;;;;2.83;0.70;;;9.80;99.90;;;;;;7287525;32;20577;-57
2023/03/24 17:46:21;;;;;;;2.45;0.37;;;9.80;99.90;;;;;;7275447;32;20215;-54
2023/03/24 17:50:24;;;;;;;5.20;0.70;;;9.90;99.90;;;;;;7291318;32;20694;-56
2023/03/24 17:54:26;;;;;;;2.62;0.80;;;9.80;99.90;;;;;;7285371;32;20161;-55
2023/03/24 17:58:29;;;;;;;3.05;0.82;;;9.70;99.90;;;;;;7281476;32;20940;-55
2023/03/24 18:02:31;;;;;;;2.80;0.77;;;9.70;99.90;;;;;;7284764;32;20103;-55
2023/03/24 18:06:33;;;;;;;4.15;0.85;;;9.60;99.90;;;;;;7287602;32;20624;-66
2023/03/24 18:10:35;;;;;;;3.28;0.93;;;9.60;99.90;;;;;;7290336;32;20220;-56
2023/03/24 18:14:37;;;;;;;5.10;1.10;;;9.70;99.90;;;;;;7281596;32;20484;-56
2023/03/24 18:18:40;;;;;;;6.32;1.10;;;9.70;99.90;;;;;;7270794;32;20215;-56
2023/03/24 18:22:42;;;;;;;4.93;1.15;;;9.50;99.90;;;;;;7286104;32;20345;-55
2023/03/24 18:26:43;;;;;;;3.80;0.80;;;9.50;99.90;;;;;;7283505;32;20214;-55
2023/03/24 18:30:45;;;;;;;3.20;1.10;;;9.50;99.90;;;;;;7278636;32;20118;-56
2023/03/24 18:34:47;;;;;;;4.25;1.10;;;9.50;99.90;;;;;;7291637;32;20108;-55
2023/03/24 18:38:49;;;;;;;3.00;0.88;;;9.50;99.90;;;;;;7283917;32;20105;-55
2023/03/24 18:42:51;;;;;;;3.72;1.10;;;9.50;99.90;;;;;;7288048;32;20214;-55
2023/03/24 18:46:54;;;;;;;4.20;1.17;;;9.40;99.90;;;;;;7287076;32;20229;-56
2023/03/24 18:50:55;;;;;;;3.70;1.00;;;9.40;99.90;;;;;;7282748;32;20592;-55
2023/03/24 18:54:59;;;;;;;3.08;1.02;;;9.50;99.90;;;;;;7277020;32;20175;-56
2023/03/24 18:59:01;;;;;;;2.33;1.02;;;9.60;99.90;;;;;;7283995;32;20192;-56
2023/03/24 19:03:03;;;;;;;2.75;0.80;;;9.60;99.90;;;;;;7279987;32;20381;-57
2023/03/24 19:07:07;;;;;;;2.28;0.85;;;9.60;99.90;;;;;;7276997;32;20581;-56
2023/03/24 19:11:09;;;;;;;5.97;1.23;;;9.70;99.90;;;;;;7279676;32;20243;-56
2023/03/24 19:15:12;;;;;;;5.75;1.37;;;9.70;99.90;;;;;;7279454;32;20628;-55
2023/03/24 19:19:17;;;;;;;5.87;1.52;;;9.70;99.90;;;;;;7275810;32;20281;-56
2023/03/24 19:23:19;;;;;;;5.65;1.48;;;9.80;99.90;;;;;;7275990;32;20568;-56
2023/03/24 19:27:22;;;;;;;4.32;1.58;;;9.80;99.90;;;;;;7281259;32;20229;-56
2023/03/24 19:31:23;;;;;;;3.58;0.90;;;9.70;99.90;;;;;;7284168;32;20638;-56
2023/03/24 19:35:25;;;;;;;5.30;0.90;;;9.70;99.90;;;;;;7275833;32;20120;-56
2023/03/24 19:39:27;;;;;;;3.42;0.93;;;9.70;99.90;;;;;;7273976;32;20822;-57
2023/03/24 19:43:29;;;;;;;3.30;1.00;;;9.80;99.90;;;;;;7270145;32;20119;-60
2023/03/24 19:47:32;;;;;;;2.85;0.95;;;9.90;99.90;;;;;;7273668;32;20359;-55
2023/03/24 19:51:34;;;;;;;5.10;0.88;;;10.30;99.90;;;;;;7273391;32;20217;-55
2023/03/24 19:55:36;;;;;;;2.78;0.73;;;10.30;99.90;;;;;;7272338;32;20119;-55
2023/03/24 19:59:37;;;;;;;4.68;1.02;;;10.20;99.90;;;;;;7276845;32;20128;-55
2023/03/24 20:03:39;;;;;;;4.12;1.10;;;10.20;99.90;;;;;;7274491;32;20231;-56
2023/03/24 20:07:41;;;;;;;3.37;0.98;;;10.20;99.90;;;;;;7275450;32;20168;-55
2023/03/24 20:11:43;;;;;;;4.35;1.17;;;10.20;99.90;;;;;;7274798;32;20307;-55
2023/03/24 20:15:45;;;;;;;2.55;0.75;;;10.20;99.90;;;;;;7277147;32;21015;-56
2023/03/24 20:19:47;;;;;;;4.12;0.80;;;10.20;99.90;;;;;;7270978;32;20422;-55
2023/03/24 20:23:50;;;;;;;2.78;0.90;;;10.10;99.90;;;;;;7277084;32;20191;-55
2023/03/24 20:27:52;;;;;;;5.30;1.15;;;10.10;99.90;;;;;;7276690;32;20108;-55
2023/03/24 20:31:54;;;;;;;3.45;0.90;;;10.10;99.90;;;;;;7280543;32;20462;-55
2023/03/24 20:35:56;;;;;;;3.42;0.80;;;10.00;99.90;;;;;;7275541;32;20135;-55
2023/03/24 20:39:58;;;;;;;4.95;1.40;;;10.00;99.90;;;;;;7277015;32;20130;-55
2023/03/24 20:44:00;;;;;;;2.53;1.02;;;10.00;99.90;;;;;;7284511;32;20751;-55
2023/03/24 20:48:02;;;;;;;3.92;1.15;;;9.90;99.90;;;;;;7271667;32;20847;-55
2023/03/24 20:52:04;;;;;;;4.65;1.25;;;10.10;99.90;;;;;;7279443;32;20135;-56
2023/03/24 20:56:08;;;;;;;5.12;1.10;;;10.00;99.90;;;;;;7274868;32;20118;-55
2023/03/24 21:00:14;;;;;;;5.05;1.27;;;10.00;99.90;;;;;;7277057;32;20664;-55
2023/03/24 21:04:17;;;;;;;5.15;0.90;;;10.00;99.90;;;;;;7276220;32;20202;-55
2023/03/24 21:08:19;;;;;;;4.97;1.00;;;10.00;99.90;;;;;;7284173;32;20108;-54
2023/03/24 21:12:21;;;;;;;4.10;1.05;;;10.00;99.90;;;;;;7284879;32;20092;-54
2023/03/24 21:16:25;;;;;;;4.25;1.35;;;10.00;99.90;;;;;;7284604;32;20100;-55
2023/03/24 21:20:27;;;;;;;3.15;0.77;;;10.00;99.90;;;;;;7286412;32;20114;-55
2023/03/24 21:24:29;;;;;;;5.30;1.30;;;10.00;99.90;;;;;;7289077;32;20123;-55
2023/03/24 21:28:31;;;;;;;3.78;1.00;;;10.00;99.90;;;;;;7290108;32;20108;-55